createdAt,value
2022-10-19T00:02:06.556Z,2.53
2022-10-19T00:04:34.060Z,1.70
2022-10-19T00:07:01.449Z,2.25
2022-10-19T00:09:29.467Z,3.80
2022-10-19T00:11:57.150Z,1.88
2022-10-19T00:14:24.705Z,1.83
2022-10-19T00:16:53.071Z,1.98
2022-10-19T00:19:22.086Z,1.83
2022-10-19T00:24:17.893Z,1.50
2022-10-19T00:26:45.573Z,1.95
2022-10-19T00:29:14.240Z,2.42
2022-10-19T00:31:42.890Z,2.95
2022-10-19T00:34:10.212Z,2.20
2022-10-19T00:36:39.862Z,2.42
2022-10-19T00:39:11.360Z,2.97
2022-10-19T00:41:39.233Z,2.53
2022-10-19T00:44:07.964Z,2.95
2022-10-19T00:46:37.266Z,1.55
2022-10-19T00:49:10.913Z,2.00
2022-10-19T00:51:40.515Z,2.72
2022-10-19T00:54:09.097Z,2.10
2022-10-19T00:56:37.095Z,1.90
2022-10-19T00:59:05.793Z,2.92
2022-10-19T01:01:36.156Z,1.88
2022-10-19T01:04:04.484Z,2.30
2022-10-19T01:06:31.997Z,4.13
2022-10-19T01:09:01.618Z,2.40
2022-10-19T01:11:32.419Z,2.33
2022-10-19T01:14:05.362Z,3.45
2022-10-19T01:16:32.857Z,2.47
2022-10-19T01:19:29.665Z,1.98
2022-10-19T01:22:07.872Z,2.03
2022-10-19T01:27:44.039Z,2.80
2022-10-19T01:30:13.701Z,1.92
2022-10-19T01:32:40.987Z,2.75
2022-10-19T01:35:12.003Z,0.95
2022-10-19T01:37:45.771Z,1.02
2022-10-19T01:40:13.034Z,1.48
2022-10-19T01:42:46.282Z,2.20
2022-10-19T01:45:29.390Z,1.05
2022-10-19T01:48:04.415Z,1.77
2022-10-19T01:50:38.230Z,1.27
2022-10-19T01:53:07.068Z,1.15
2022-10-19T01:55:35.019Z,0.82
2022-10-19T01:58:14.183Z,0.60
2022-10-19T02:00:43.591Z,2.03
2022-10-19T02:03:11.214Z,1.05
2022-10-19T02:05:40.041Z,0.95
2022-10-19T02:10:39.093Z,0.32
2022-10-19T02:13:08.169Z,1.13
2022-10-19T02:15:37.513Z,1.20
2022-10-19T02:18:07.220Z,1.60
2022-10-19T02:20:36.707Z,1.15
2022-10-19T02:23:06.366Z,1.27
2022-10-19T02:25:34.304Z,0.70
2022-10-19T02:28:03.274Z,0.83
2022-10-19T02:32:57.638Z,0.65
2022-10-19T02:35:25.030Z,1.75
2022-10-19T02:37:52.513Z,1.15
2022-10-19T02:40:20.157Z,1.15
2022-10-19T02:42:59.284Z,1.02
2022-10-19T02:45:33.343Z,0.93
2022-10-19T02:48:09.125Z,1.33
2022-10-19T02:50:36.538Z,1.23
2022-10-19T02:53:03.828Z,1.02
2022-10-19T02:55:31.722Z,2.08
2022-10-19T02:57:59.097Z,2.00
2022-10-19T03:00:26.439Z,1.27
2022-10-19T03:02:53.803Z,1.17
2022-10-19T03:05:21.143Z,1.40
2022-10-19T03:07:48.587Z,1.38
2022-10-19T03:10:16.100Z,1.38
2022-10-19T03:12:43.395Z,1.50
2022-10-19T03:15:15.062Z,1.52
2022-10-19T03:17:42.458Z,1.70
2022-10-19T03:20:10.314Z,1.95
2022-10-19T03:22:39.962Z,1.27
2022-10-19T03:25:07.712Z,1.60
2022-10-19T03:27:35.348Z,1.33
2022-10-19T03:30:04.298Z,0.60
2022-10-19T03:32:31.632Z,1.17
2022-10-19T03:34:59.029Z,0.85
2022-10-19T03:37:28.846Z,1.63
2022-10-19T03:39:56.220Z,1.25
2022-10-19T03:42:23.645Z,1.65
2022-10-19T03:44:51.077Z,1.40
2022-10-19T03:47:18.607Z,1.00
2022-10-19T03:49:48.191Z,0.80
2022-10-19T03:52:15.534Z,1.00
2022-10-19T03:54:42.902Z,0.30
2022-10-19T03:57:10.588Z,0.80
2022-10-19T03:59:37.908Z,1.30
2022-10-19T04:02:07.691Z,0.80
2022-10-19T04:04:35.088Z,1.05
2022-10-19T04:07:02.402Z,0.52
2022-10-19T04:09:32.247Z,0.60
2022-10-19T04:11:59.619Z,1.00
2022-10-19T04:14:32.643Z,0.70
2022-10-19T04:17:04.046Z,0.95
2022-10-19T04:19:34.056Z,0.73
2022-10-19T04:22:01.521Z,1.40
2022-10-19T04:24:29.328Z,0.60
2022-10-19T04:26:57.173Z,0.85
2022-10-19T04:29:29.962Z,0.90
2022-10-19T04:31:58.466Z,0.82
2022-10-19T04:34:26.613Z,2.25
2022-10-19T04:37:10.569Z,1.47
2022-10-19T04:39:41.183Z,1.00
2022-10-19T04:42:26.094Z,0.55
2022-10-19T04:44:55.088Z,0.85
2022-10-19T04:47:22.479Z,0.77
2022-10-19T04:49:49.967Z,1.00
2022-10-19T04:52:17.318Z,0.75
2022-10-19T04:54:46.476Z,1.13
2022-10-19T04:57:13.914Z,1.20
2022-10-19T04:59:41.230Z,0.40
2022-10-19T05:02:08.667Z,0.60
2022-10-19T05:04:40.811Z,0.73
2022-10-19T05:07:11.808Z,0.52
2022-10-19T05:09:40.528Z,1.33
2022-10-19T05:12:09.921Z,0.90
2022-10-19T05:14:39.167Z,0.28
2022-10-19T05:17:09.409Z,1.10
2022-10-19T05:19:36.751Z,0.55
2022-10-19T05:22:04.097Z,0.82
2022-10-19T05:24:32.733Z,1.08
2022-10-19T05:27:00.109Z,0.82
2022-10-19T05:29:28.305Z,0.50
2022-10-19T05:31:55.711Z,1.02
2022-10-19T05:34:23.147Z,0.70
2022-10-19T05:36:50.583Z,0.25
2022-10-19T05:39:18.851Z,1.30
2022-10-19T05:41:50.457Z,1.35
2022-10-19T05:44:19.217Z,0.43
2022-10-19T05:46:46.789Z,1.77
2022-10-19T05:49:14.419Z,0.55
2022-10-19T05:51:41.865Z,0.85
2022-10-19T05:54:09.300Z,0.35
2022-10-19T05:56:38.885Z,0.70
2022-10-19T05:59:08.348Z,0.57
2022-10-19T06:01:36.036Z,0.55
2022-10-19T06:04:06.755Z,1.42
2022-10-19T06:06:34.292Z,1.05
2022-10-19T06:09:01.678Z,0.95
2022-10-19T06:11:32.619Z,1.10
2022-10-19T06:14:05.320Z,0.82
2022-10-19T06:16:33.292Z,0.28
2022-10-19T06:19:00.727Z,0.77
2022-10-19T06:21:31.261Z,0.40
2022-10-19T06:24:02.728Z,0.77
2022-10-19T06:26:31.757Z,1.13
2022-10-19T06:31:35.306Z,0.80
2022-10-19T06:34:02.850Z,1.17
2022-10-19T06:36:31.671Z,1.67
2022-10-19T06:39:00.086Z,1.38
2022-10-19T06:41:27.530Z,1.10
2022-10-19T06:43:55.646Z,0.93
2022-10-19T06:46:24.621Z,0.57
2022-10-19T06:48:53.217Z,0.45
2022-10-19T06:51:20.892Z,0.85
2022-10-19T06:53:54.181Z,1.15
2022-10-19T06:56:24.823Z,0.55
2022-10-19T06:58:52.161Z,0.63
2022-10-19T07:01:20.317Z,0.55
2022-10-19T07:03:47.784Z,0.88
2022-10-19T07:06:15.322Z,0.98
2022-10-19T07:08:43.358Z,1.02
2022-10-19T07:11:15.915Z,1.13
2022-10-19T07:13:43.321Z,1.45
2022-10-19T07:16:17.625Z,0.43
2022-10-19T07:18:48.557Z,0.55
2022-10-19T07:21:16.918Z,0.70
2022-10-19T07:23:48.089Z,0.32
2022-10-19T07:26:17.386Z,0.98
2022-10-19T07:28:49.214Z,0.40
2022-10-19T07:31:19.097Z,0.32
2022-10-19T07:33:46.754Z,0.75
2022-10-19T07:36:14.471Z,0.70
2022-10-19T07:38:41.993Z,1.00
2022-10-19T07:41:16.986Z,0.70
2022-10-19T07:43:45.081Z,0.60
2022-10-19T07:46:14.010Z,0.40
2022-10-19T07:51:09.321Z,0.90
2022-10-19T07:53:37.476Z,0.10
2022-10-19T07:56:12.192Z,0.50
2022-10-19T07:58:39.821Z,0.10
2022-10-19T08:01:08.756Z,0.70
2022-10-19T08:04:42.845Z,0.80
2022-10-19T08:06:24.505Z,0.70
2022-10-19T08:08:52.255Z,0.25
2022-10-19T08:11:26.676Z,0.82
2022-10-19T08:13:56.278Z,0.98
2022-10-19T08:16:34.539Z,0.73
2022-10-19T08:19:03.178Z,0.20
2022-10-19T08:21:31.233Z,0.52
2022-10-19T08:23:58.664Z,0.40
2022-10-19T08:26:26.565Z,0.50
2022-10-19T08:28:54.024Z,1.02
2022-10-19T08:31:23.220Z,0.98
2022-10-19T08:33:51.260Z,1.00
2022-10-19T08:36:24.182Z,0.43
2022-10-19T08:38:51.763Z,0.85
2022-10-19T08:41:25.119Z,0.63
2022-10-19T08:44:17.048Z,0.32
2022-10-19T08:47:02.624Z,1.05
2022-10-19T08:49:31.686Z,0.85
2022-10-19T08:52:00.400Z,0.20
2022-10-19T08:54:41.596Z,0.88
2022-10-19T08:57:09.028Z,0.40
2022-10-19T08:59:49.801Z,1.35
2022-10-19T09:02:33.185Z,0.30
2022-10-19T09:05:04.353Z,0.20
2022-10-19T09:07:37.182Z,0.40
2022-10-19T09:10:08.993Z,0.10
2022-10-19T09:12:42.067Z,0.45
2022-10-19T09:15:22.450Z,0.95
2022-10-19T09:17:51.101Z,0.73
2022-10-19T09:20:30.250Z,0.52
2022-10-19T09:23:08.649Z,0.32
2022-10-19T09:25:39.057Z,0.93
2022-10-19T09:28:29.264Z,0.50
2022-10-19T09:31:01.481Z,0.38
2022-10-19T09:33:36.914Z,0.65
2022-10-19T09:36:08.381Z,0.75
2022-10-19T09:38:35.796Z,0.45
2022-10-19T09:41:17.619Z,0.82
2022-10-19T09:43:51.022Z,0.22
2022-10-19T09:46:41.514Z,0.45
2022-10-19T09:49:08.884Z,0.63
2022-10-19T09:51:42.476Z,0.28
2022-10-19T09:54:23.803Z,0.60
2022-10-19T09:56:56.546Z,0.30
2022-10-19T09:59:25.446Z,0.30
2022-10-19T10:02:22.268Z,0.73
2022-10-19T10:04:57.390Z,0.30
2022-10-19T10:07:35.257Z,0.85
2022-10-19T10:10:10.847Z,0.88
2022-10-19T10:12:40.669Z,0.57
2022-10-19T10:15:08.400Z,0.55
2022-10-19T10:17:38.680Z,0.10
2022-10-19T10:20:16.821Z,0.25
2022-10-19T10:22:52.496Z,0.20
2022-10-19T10:25:20.173Z,0.08
2022-10-19T10:27:58.302Z,0.13
2022-10-19T10:30:25.882Z,0.98
2022-10-19T10:33:13.210Z,0.73
2022-10-19T10:35:50.073Z,0.65
2022-10-19T10:38:20.080Z,0.00
2022-10-19T10:40:52.094Z,0.40
2022-10-19T10:43:30.231Z,0.15
2022-10-19T10:46:01.376Z,0.38
2022-10-19T10:48:44.944Z,0.20
2022-10-19T10:51:27.628Z,0.30
2022-10-19T10:54:07.730Z,0.38
2022-10-19T10:56:36.582Z,0.50
2022-10-19T11:02:03.900Z,0.40
2022-10-19T11:04:38.246Z,0.30
2022-10-19T11:07:22.616Z,0.40
2022-10-19T11:09:56.311Z,0.20
2022-10-19T11:12:35.295Z,0.17
2022-10-19T11:15:31.499Z,0.47
2022-10-19T11:18:11.667Z,0.03
2022-10-19T11:20:42.420Z,0.52
2022-10-19T11:23:36.221Z,0.43
2022-10-19T11:26:06.839Z,0.10
2022-10-19T11:28:56.778Z,1.45
2022-10-19T11:31:33.392Z,0.57
2022-10-19T11:34:00.766Z,0.30
2022-10-19T11:36:54.189Z,0.00
2022-10-19T11:39:39.899Z,0.35
2022-10-19T11:42:13.449Z,0.80
2022-10-19T11:44:54.589Z,0.20
2022-10-19T11:47:25.123Z,0.10
2022-10-19T11:52:40.112Z,0.10
2022-10-19T11:55:23.381Z,0.03
2022-10-19T11:57:52.948Z,0.05
2022-10-19T12:00:39.803Z,0.25
2022-10-19T12:03:07.556Z,0.10
2022-10-19T12:05:47.187Z,0.05
2022-10-19T12:08:23.894Z,0.40
2022-10-19T12:10:51.382Z,0.45
2022-10-19T12:13:26.759Z,0.30
2022-10-19T12:15:55.196Z,0.10
2022-10-19T12:18:40.488Z,0.35
2022-10-19T12:21:14.936Z,0.60
2022-10-19T12:23:46.806Z,0.17
2022-10-19T12:28:59.703Z,0.30
2022-10-19T12:31:28.590Z,0.10
2022-10-19T12:34:11.417Z,0.40
2022-10-19T12:36:53.504Z,0.13
2022-10-19T12:39:27.870Z,0.10
2022-10-19T12:42:24.002Z,0.20
2022-10-19T12:45:25.391Z,0.13
2022-10-19T12:48:11.500Z,0.40
2022-10-19T12:50:53.864Z,0.00
2022-10-19T12:53:49.209Z,0.35
2022-10-19T12:56:21.537Z,0.20
2022-10-19T12:59:13.778Z,0.98
2022-10-19T13:01:44.452Z,0.52
2022-10-19T13:04:15.892Z,0.40
2022-10-19T13:07:00.352Z,0.10
2022-10-19T13:09:29.935Z,0.10
2022-10-19T13:12:23.696Z,0.30
2022-10-19T13:14:53.154Z,0.32
2022-10-19T13:17:20.517Z,0.30
2022-10-19T13:19:47.938Z,0.43
2022-10-19T13:22:27.466Z,0.10
2022-10-19T13:25:15.565Z,0.40
2022-10-19T13:27:44.708Z,0.28
2022-10-19T13:30:34.493Z,0.10
2022-10-19T13:33:21.874Z,0.40
2022-10-19T13:35:49.369Z,0.13
2022-10-19T13:38:16.723Z,0.20
2022-10-19T13:40:49.894Z,0.25
2022-10-19T13:43:23.309Z,0.35
2022-10-19T13:45:56.906Z,0.32
2022-10-19T13:48:38.864Z,0.30
2022-10-19T13:51:11.901Z,0.35
2022-10-19T13:53:51.437Z,0.32
2022-10-19T13:59:30.184Z,0.32
2022-10-19T14:02:22.750Z,0.40
2022-10-19T14:04:58.106Z,0.40
2022-10-19T14:07:27.272Z,0.50
2022-10-19T14:10:09.315Z,0.25
2022-10-19T14:12:43.930Z,0.60
2022-10-19T14:15:23.661Z,0.32
2022-10-19T14:17:51.208Z,0.32
2022-10-19T14:20:32.735Z,0.30
2022-10-19T14:23:18.284Z,0.43
2022-10-19T14:26:02.732Z,0.60
2022-10-19T14:28:31.897Z,0.80
2022-10-19T14:31:01.254Z,0.77
2022-10-19T14:33:34.151Z,0.50
2022-10-19T14:36:01.949Z,0.28
2022-10-19T14:38:29.545Z,0.10
2022-10-19T14:40:57.024Z,0.10
2022-10-19T14:43:34.063Z,0.30
2022-10-19T14:46:07.376Z,0.20
2022-10-19T14:48:35.442Z,0.30
2022-10-19T14:51:03.862Z,0.73
2022-10-19T14:53:48.307Z,0.15
2022-10-19T14:56:18.729Z,0.50
2022-10-19T14:58:57.875Z,0.20
2022-10-19T15:01:27.758Z,0.30
2022-10-19T15:03:55.346Z,1.30
2022-10-19T15:06:24.487Z,0.20
2022-10-19T15:11:26.163Z,0.73
2022-10-19T15:13:59.392Z,0.68
2022-10-19T15:16:30.951Z,0.60
2022-10-19T15:19:04.480Z,0.40
2022-10-19T15:21:33.466Z,0.28
2022-10-19T15:24:27.633Z,0.15
2022-10-19T15:27:08.837Z,0.38
2022-10-19T15:29:36.940Z,0.50
2022-10-19T15:32:26.117Z,0.43
2022-10-19T15:34:53.504Z,0.50
2022-10-19T15:37:22.152Z,0.60
2022-10-19T15:39:51.408Z,0.60
2022-10-19T15:42:39.409Z,0.60
2022-10-19T15:45:26.924Z,0.20
2022-10-19T15:48:15.662Z,0.40
2022-10-19T15:53:16.526Z,0.22
2022-10-19T15:55:43.933Z,0.70
2022-10-19T15:58:14.479Z,0.50
2022-10-19T16:00:44.175Z,0.50
2022-10-19T16:03:11.569Z,0.70
2022-10-19T16:05:39.224Z,0.65
2022-10-19T16:08:10.127Z,0.35
2022-10-19T16:10:39.735Z,0.60
2022-10-19T16:13:07.282Z,0.43
2022-10-19T16:15:34.711Z,1.55
2022-10-19T16:18:02.390Z,0.57
2022-10-19T16:20:30.644Z,0.55
2022-10-19T16:22:58.341Z,0.98
2022-10-19T16:25:25.654Z,0.73
2022-10-19T16:27:53.451Z,1.05
2022-10-19T16:30:22.858Z,0.40
2022-10-19T16:32:50.492Z,0.57
2022-10-19T16:35:17.866Z,1.33
2022-10-19T16:37:47.489Z,0.90
2022-10-19T16:40:14.810Z,0.75
2022-10-19T16:42:42.309Z,1.30
2022-10-19T16:45:10.118Z,0.70
2022-10-19T16:47:37.660Z,0.85
2022-10-19T16:50:06.461Z,0.85
2022-10-19T16:55:01.838Z,1.47
2022-10-19T16:57:29.390Z,0.57
2022-10-19T16:59:57.095Z,0.75
2022-10-19T17:02:24.710Z,0.63
2022-10-19T17:04:52.406Z,2.78
2022-10-19T17:07:20.187Z,0.82
2022-10-19T17:09:52.270Z,0.70
2022-10-19T17:12:22.064Z,0.88
2022-10-19T17:15:02.913Z,1.00
2022-10-19T17:17:39.088Z,0.52
2022-10-19T17:20:14.452Z,0.98
2022-10-19T17:22:42.025Z,0.75
2022-10-19T17:25:10.393Z,1.35
2022-10-19T17:27:38.541Z,1.55
2022-10-19T17:30:06.603Z,1.00
2022-10-19T17:32:34.694Z,1.33
2022-10-19T17:35:02.543Z,0.85
2022-10-19T17:37:32.546Z,1.30
2022-10-19T17:40:00.513Z,0.88
2022-10-19T17:42:28.198Z,0.77
2022-10-19T17:44:55.567Z,0.47
2022-10-19T17:47:23.358Z,1.35
2022-10-19T17:49:51.215Z,1.10
2022-10-19T17:52:19.727Z,1.65
2022-10-19T17:54:54.681Z,1.15
2022-10-19T17:57:36.922Z,0.85
2022-10-19T18:00:05.863Z,1.05
2022-10-19T18:02:34.654Z,1.13
2022-10-19T18:05:03.028Z,1.55
2022-10-19T18:07:31.062Z,0.28
2022-10-19T18:10:00.383Z,0.67
2022-10-19T18:12:28.254Z,0.20
2022-10-19T18:14:56.054Z,0.75
2022-10-19T18:17:27.691Z,0.47
2022-10-19T18:19:58.429Z,1.05
2022-10-19T18:22:26.526Z,1.52
2022-10-19T18:24:54.336Z,0.40
2022-10-19T18:27:22.089Z,0.38
2022-10-19T18:29:50.019Z,0.38
2022-10-19T18:32:18.003Z,0.13
2022-10-19T18:34:46.114Z,0.27
2022-10-19T18:37:16.914Z,0.32
2022-10-19T18:39:45.529Z,0.50
2022-10-19T18:42:13.720Z,1.08
2022-10-19T18:44:41.600Z,0.30
2022-10-19T18:47:09.689Z,0.45
2022-10-19T18:49:37.704Z,0.77
2022-10-19T18:52:05.786Z,0.40
2022-10-19T18:54:33.469Z,0.30
2022-10-19T18:57:01.422Z,0.40
2022-10-19T18:59:29.497Z,0.25
2022-10-19T19:01:57.411Z,0.50
2022-10-19T19:04:27.546Z,0.40
2022-10-19T19:06:55.887Z,0.50
2022-10-19T19:09:23.870Z,0.45
2022-10-19T19:11:54.844Z,0.25
2022-10-19T19:14:22.693Z,0.43
2022-10-19T19:16:56.094Z,0.63
2022-10-19T19:19:26.385Z,0.10
2022-10-19T19:21:55.056Z,0.03
2022-10-19T19:24:23.703Z,0.13
2022-10-19T19:26:53.470Z,0.17
2022-10-19T19:29:22.080Z,1.02
2022-10-19T19:31:50.572Z,0.28
2022-10-19T19:34:19.880Z,0.50
2022-10-19T19:36:48.996Z,0.20
2022-10-19T19:39:18.746Z,0.52
2022-10-19T19:41:46.838Z,0.10
2022-10-19T19:44:16.934Z,0.37
2022-10-19T19:46:44.919Z,0.40
2022-10-19T19:49:13.189Z,0.22
2022-10-19T19:51:41.150Z,0.73
2022-10-19T19:54:09.003Z,0.35
2022-10-19T19:56:39.111Z,0.32
2022-10-19T19:59:07.012Z,0.85
2022-10-19T20:01:36.492Z,0.20
2022-10-19T20:04:04.733Z,0.60
2022-10-19T20:06:33.425Z,0.73
2022-10-19T20:09:01.354Z,0.10
2022-10-19T20:11:29.808Z,0.27
2022-10-19T20:13:59.730Z,0.30
2022-10-19T20:16:29.444Z,0.15
2022-10-19T20:19:00.123Z,0.38
2022-10-19T20:21:29.851Z,0.43
2022-10-19T20:23:57.615Z,0.20
2022-10-19T20:26:25.984Z,0.40
2022-10-19T20:28:54.037Z,0.65
2022-10-19T20:31:22.067Z,0.40
2022-10-19T20:33:50.146Z,0.10
2022-10-19T20:36:26.028Z,0.65
2022-10-19T20:38:58.132Z,0.20
2022-10-19T20:41:30.839Z,0.77
2022-10-19T20:43:58.753Z,0.20
2022-10-19T20:46:28.503Z,0.20
2022-10-19T20:48:57.057Z,0.25
2022-10-19T20:51:30.764Z,0.63
2022-10-19T20:54:00.828Z,0.05
2022-10-19T20:56:29.901Z,0.25
2022-10-19T20:59:05.095Z,0.32
2022-10-19T21:01:34.007Z,0.32
2022-10-19T21:06:30.445Z,0.17
2022-10-19T21:08:58.485Z,0.35
2022-10-19T21:11:30.331Z,0.40
2022-10-19T21:14:02.200Z,0.20
2022-10-19T21:16:30.353Z,0.40
2022-10-19T21:18:58.047Z,0.10
2022-10-19T21:21:30.937Z,0.40
2022-10-19T21:23:59.695Z,0.20
2022-10-19T21:26:27.960Z,0.25
2022-10-19T21:28:55.636Z,0.40
2022-10-19T21:31:26.280Z,0.30
2022-10-19T21:33:53.803Z,0.00
2022-10-19T21:36:24.046Z,0.20
2022-10-19T21:38:51.752Z,0.15
2022-10-19T21:41:25.393Z,0.08
2022-10-19T21:43:53.988Z,0.10
2022-10-19T21:46:22.029Z,0.10
2022-10-19T21:48:49.742Z,0.20
2022-10-19T21:51:19.865Z,0.20
2022-10-19T21:53:47.298Z,0.10
2022-10-19T21:56:15.586Z,0.15
2022-10-19T21:58:47.207Z,0.13
2022-10-19T22:01:14.675Z,0.25
2022-10-19T22:03:42.134Z,0.22
2022-10-19T22:06:09.849Z,0.22
2022-10-19T22:08:37.428Z,0.38
2022-10-19T22:11:06.691Z,0.43
2022-10-19T22:13:34.397Z,0.30
2022-10-19T22:16:05.631Z,0.50
2022-10-19T22:18:33.391Z,0.15
2022-10-19T22:21:12.169Z,0.15
2022-10-19T22:23:39.617Z,0.00
2022-10-19T22:26:16.080Z,0.15
2022-10-19T22:28:43.588Z,0.10
2022-10-19T22:31:11.221Z,0.68
2022-10-19T22:33:38.586Z,0.43
2022-10-19T22:36:07.273Z,0.50
2022-10-19T22:38:35.133Z,0.32
2022-10-19T22:41:39.971Z,0.03
2022-10-19T22:44:07.447Z,0.30
2022-10-19T22:46:34.891Z,0.35
2022-10-19T22:49:05.387Z,0.65
2022-10-19T22:51:32.809Z,0.55
2022-10-19T22:54:00.649Z,0.17
2022-10-19T22:56:28.348Z,0.15
2022-10-19T22:59:02.126Z,0.10
2022-10-19T23:01:29.633Z,0.10
2022-10-19T23:03:57.369Z,0.80
2022-10-19T23:06:24.958Z,0.10
2022-10-19T23:08:54.669Z,0.20
2022-10-19T23:11:22.103Z,0.30
2022-10-19T23:13:49.512Z,0.30
2022-10-19T23:16:17.050Z,0.30
2022-10-19T23:18:44.469Z,0.50
2022-10-19T23:21:13.883Z,0.28
2022-10-19T23:23:44.578Z,0.10
2022-10-19T23:26:11.953Z,0.63
2022-10-19T23:28:40.651Z,0.28
2022-10-19T23:31:10.213Z,0.05
2022-10-19T23:33:37.596Z,0.20
2022-10-19T23:36:12.284Z,0.10
2022-10-19T23:38:39.906Z,0.57
2022-10-19T23:41:07.294Z,0.40
2022-10-19T23:46:01.920Z,0.40
2022-10-19T23:48:29.321Z,0.32
2022-10-19T23:50:57.334Z,0.20
2022-10-19T23:53:24.711Z,0.15
2022-10-19T23:55:52.221Z,0.55
2022-10-19T23:58:19.596Z,0.68
